createdAt,value
2018-05-04T00:00:55.472Z,52.8
2018-05-04T00:01:54.904Z,52.5
2018-05-04T00:02:53.996Z,53.2
2018-05-04T00:03:53.417Z,53.9
2018-05-04T00:04:52.123Z,53.6
2018-05-04T00:05:51.546Z,54.9
2018-05-04T00:06:50.754Z,55.7
2018-05-04T00:07:21.164Z,55.7
2018-05-04T00:07:51.675Z,53.7
2018-05-04T00:08:48.880Z,54
2018-05-04T00:09:48.311Z,54.4
2018-05-04T00:11:46.507Z,56.1
2018-05-04T00:12:46.218Z,55.8
2018-05-04T00:14:44.322Z,56.3
2018-05-04T00:15:43.753Z,56.4
2018-05-04T00:16:42.701Z,56.2
2018-05-04T00:17:42.180Z,54.4
2018-05-04T00:18:40.888Z,56.2
2018-05-04T00:19:40.199Z,56.1
2018-05-04T00:20:39.804Z,55.3
2018-05-04T00:21:38.614Z,55.7
2018-05-04T00:22:37.936Z,55.8
2018-05-04T00:23:37.364Z,55.7
2018-05-04T00:24:36.164Z,54.9
2018-05-04T00:25:35.358Z,55.1
2018-05-04T00:26:34.781Z,57.3
2018-05-04T00:27:33.986Z,57.2
2018-05-04T00:28:33.409Z,56.8
2018-05-04T00:29:32.129Z,56.4
2018-05-04T00:30:31.346Z,56
2018-05-04T00:31:30.650Z,56.3
2018-05-04T00:32:29.971Z,55.3
2018-05-04T00:34:28.167Z,56.8
2018-05-04T00:35:27.480Z,57.1
2018-05-04T00:36:26.797Z,57.8
2018-05-04T00:37:26.007Z,56.4
2018-05-04T00:38:25.331Z,57.5
2018-05-04T00:39:24.545Z,56.6
2018-05-04T00:40:23.420Z,56.6
2018-05-04T00:41:22.854Z,56.2
2018-05-04T00:42:22.072Z,57.2
2018-05-04T00:43:20.883Z,56.6
2018-05-04T00:44:20.080Z,58.1
2018-05-04T00:45:19.304Z,57.3
2018-05-04T00:46:18.501Z,58.6
2018-05-04T00:47:17.707Z,58.1
2018-05-04T00:48:17.017Z,58.4
2018-05-04T00:49:16.349Z,58.9
2018-05-04T00:50:15.552Z,57.7
2018-05-04T00:51:14.649Z,57.5
2018-05-04T00:52:13.978Z,57.5
2018-05-04T00:53:13.186Z,57
2018-05-04T00:54:12.503Z,58.8
2018-05-04T00:55:11.316Z,58.5
2018-05-04T00:55:41.561Z,58.5
2018-05-04T00:56:12.200Z,59.7
2018-05-04T00:57:09.608Z,58.3
2018-05-04T00:58:09.036Z,59
2018-05-04T01:00:07.346Z,58.6
2018-05-04T01:01:06.670Z,59
2018-05-04T01:02:05.601Z,57.7
2018-05-04T01:04:04.199Z,59.1
2018-05-04T01:05:03.627Z,60.4
2018-05-04T01:06:02.440Z,58.8
2018-05-04T01:07:01.545Z,58
2018-05-04T01:08:00.977Z,58.5
2018-05-04T01:09:00.289Z,57.8
2018-05-04T01:10:58.380Z,58.4
2018-05-04T01:11:57.800Z,59.3
2018-05-04T01:12:56.614Z,59.2
2018-05-04T01:13:55.824Z,59.8
2018-05-04T01:14:55.250Z,59
2018-05-04T01:15:54.461Z,58.6
2018-05-04T01:16:53.884Z,58.5
2018-05-04T01:17:52.585Z,59.3
2018-05-04T01:18:52.188Z,59.4
2018-05-04T01:19:51.400Z,59.4
2018-05-04T01:20:50.312Z,58.6
2018-05-04T01:21:49.725Z,58.6
2018-05-04T01:22:49.036Z,59.7
2018-05-04T01:23:47.849Z,59.3
2018-05-04T01:24:47.157Z,59.2
2018-05-04T01:25:46.363Z,58.8
2018-05-04T01:26:16.881Z,58.8
2018-05-04T01:26:47.002Z,58.8
2018-05-04T01:27:17.515Z,58.8
2018-05-04T01:28:44.009Z,57.8
2018-05-04T01:29:43.331Z,58.2
2018-05-04T01:30:42.543Z,59.3
2018-05-04T01:31:41.860Z,60.5
2018-05-04T01:32:40.678Z,58.8
2018-05-04T01:33:40.093Z,58.7
2018-05-04T01:34:39.408Z,59.8
2018-05-04T01:35:38.240Z,59.3
2018-05-04T01:36:37.554Z,59.5
2018-05-04T01:37:07.964Z,59.5
2018-05-04T01:37:38.593Z,59.7
2018-05-04T01:38:09.244Z,59.7
2018-05-04T01:39:35.331Z,59.3
2018-05-04T01:40:34.212Z,59
2018-05-04T01:41:33.637Z,60.2
2018-05-04T01:42:32.863Z,58.9
2018-05-04T01:43:31.781Z,59.7
2018-05-04T01:44:30.984Z,60.1
2018-05-04T01:45:30.080Z,61.7
2018-05-04T01:46:29.281Z,61.3
2018-05-04T01:48:28.085Z,59.8
2018-05-04T01:49:27.000Z,60.6
2018-05-04T01:50:26.439Z,61.3
2018-05-04T01:51:25.636Z,60.8
2018-05-04T01:52:24.451Z,62.5
2018-05-04T01:53:23.870Z,61.2
2018-05-04T01:54:22.798Z,61.2
2018-05-04T01:55:22.225Z,61.7
2018-05-04T01:56:21.464Z,61.1
2018-05-04T01:57:20.668Z,61.7
2018-05-04T01:58:19.979Z,60.7
2018-05-04T01:59:18.909Z,61.2
2018-05-04T02:00:18.220Z,61
2018-05-04T02:01:17.536Z,62.6
2018-05-04T02:02:16.745Z,60.3
2018-05-04T02:03:15.556Z,60.5
2018-05-04T02:04:14.756Z,60.2
2018-05-04T02:05:14.080Z,60.9
2018-05-04T02:06:13.394Z,60.2
2018-05-04T02:07:12.695Z,60.2
2018-05-04T02:08:11.904Z,61.9
2018-05-04T02:09:10.614Z,60.7
2018-05-04T02:11:09.211Z,60
2018-05-04T02:12:08.514Z,60.2
2018-05-04T02:13:07.320Z,61.2
2018-05-04T02:14:06.736Z,61.3
2018-05-04T02:15:06.155Z,61.2
2018-05-04T02:16:05.153Z,61.5
2018-05-04T02:17:04.249Z,61.2
2018-05-04T02:18:03.573Z,60.6
2018-05-04T02:19:02.494Z,61.6
2018-05-04T02:19:33.123Z,61.6
2018-05-04T02:20:03.546Z,61
2018-05-04T02:21:01.364Z,62.6
2018-05-04T02:22:00.175Z,59.6
2018-05-04T02:22:59.391Z,60
2018-05-04T02:23:58.807Z,61.2
2018-05-04T02:24:57.732Z,60.3
2018-05-04T02:25:57.154Z,60.4
2018-05-04T02:26:56.080Z,60.3
2018-05-04T02:27:55.409Z,60.3
2018-05-04T02:28:54.765Z,60.9
2018-05-04T02:29:53.694Z,61
2018-05-04T02:30:53.027Z,60.7
2018-05-04T02:31:52.368Z,60
2018-05-04T02:32:51.167Z,61.1
2018-05-04T02:33:50.384Z,62.3
2018-05-04T02:34:49.785Z,60.9
2018-05-04T02:35:49.111Z,60.7
2018-05-04T02:37:47.098Z,60.8
2018-05-04T02:38:46.715Z,61
2018-05-04T02:39:45.810Z,60.8
2018-05-04T02:40:44.540Z,60.7
2018-05-04T02:41:43.865Z,61.5
2018-05-04T02:42:43.232Z,62.5
2018-05-04T02:43:42.558Z,61.9
2018-05-04T02:44:41.678Z,60.8
2018-05-04T02:45:41.007Z,59.7
2018-05-04T02:46:40.211Z,61.4
2018-05-04T02:47:39.028Z,60.9
2018-05-04T02:48:38.349Z,61.3
2018-05-04T02:49:37.677Z,61.3
2018-05-04T02:50:36.772Z,61.7
2018-05-04T02:51:35.595Z,61.7
2018-05-04T02:52:35.024Z,61.4
2018-05-04T02:53:34.460Z,62.1
2018-05-04T02:54:33.168Z,61.6
2018-05-04T02:55:32.750Z,62
2018-05-04T02:56:31.759Z,61.4
2018-05-04T02:57:31.104Z,62.5
2018-05-04T02:58:30.320Z,62.2
2018-05-04T02:59:29.452Z,61.3
2018-05-04T03:00:28.663Z,60.7
2018-05-04T03:01:27.501Z,61.3
2018-05-04T03:02:26.926Z,61.1
2018-05-04T03:03:26.152Z,61.8
2018-05-04T03:04:25.374Z,62.3
2018-05-04T03:04:56.007Z,62.3
2018-05-04T03:06:23.516Z,62.1
2018-05-04T03:07:22.950Z,61.8
2018-05-04T03:08:21.797Z,62.3
2018-05-04T03:09:21.137Z,62.9
2018-05-04T03:10:20.463Z,63.3
2018-05-04T03:11:19.672Z,62.6
2018-05-04T03:12:18.568Z,62
2018-05-04T03:13:18.007Z,62.6
2018-05-04T03:14:17.009Z,63.6
2018-05-04T03:14:47.641Z,63.6
2018-05-04T03:15:18.053Z,63.7
2018-05-04T03:15:48.582Z,63.7
2018-05-04T03:17:14.754Z,62.5
2018-05-04T03:18:13.683Z,62.4
2018-05-04T03:19:13.003Z,63.6
2018-05-04T03:20:12.092Z,61.8
2018-05-04T03:21:11.297Z,63.3
2018-05-04T03:22:10.648Z,63.2
2018-05-04T03:23:09.459Z,62.5
2018-05-04T03:24:08.781Z,62.8
2018-05-04T03:25:08.090Z,63
2018-05-04T03:26:07.410Z,63.1
2018-05-04T03:27:06.608Z,63.5
2018-05-04T03:28:05.480Z,62.4
2018-05-04T03:29:05.078Z,62.3
2018-05-04T03:30:03.889Z,62.4
2018-05-04T03:31:03.326Z,62.3
2018-05-04T03:32:02.550Z,63.3
2018-05-04T03:33:01.669Z,64.6
2018-05-04T03:34:00.676Z,64.7
2018-05-04T03:34:59.778Z,64.2
2018-05-04T03:35:58.987Z,65.4
2018-05-04T03:36:58.369Z,64.6
2018-05-04T03:37:57.678Z,64.4
2018-05-04T03:38:56.939Z,62.4
2018-05-04T03:39:55.858Z,62.3
2018-05-04T03:40:55.079Z,62.3
2018-05-04T03:41:53.996Z,62.9
2018-05-04T03:42:53.416Z,62.3
2018-05-04T03:43:52.366Z,63.4
2018-05-04T03:44:51.576Z,63.5
2018-05-04T03:45:50.889Z,62
2018-05-04T03:46:50.216Z,62.7
2018-05-04T03:47:49.427Z,62.4
2018-05-04T03:48:48.237Z,61.3
2018-05-04T03:49:47.560Z,62
2018-05-04T03:50:46.875Z,61.3
2018-05-04T03:51:46.199Z,61.8
2018-05-04T03:52:45.412Z,62.5
2018-05-04T03:53:44.227Z,61.2
2018-05-04T03:54:14.853Z,61.2
2018-05-04T03:54:45.481Z,61.1
2018-05-04T03:55:16.106Z,61.1
2018-05-04T03:55:46.793Z,62.7
2018-05-04T03:56:17.303Z,62.7
2018-05-04T03:56:47.832Z,61.5
2018-05-04T03:57:18.067Z,61.5
2018-05-04T03:57:48.483Z,61.6
2018-05-04T03:58:19.115Z,61.6
2018-05-04T03:59:39.463Z,62.2
2018-05-04T04:00:38.779Z,61.9
2018-05-04T04:01:37.704Z,61.4
2018-05-04T04:02:37.125Z,63.1
2018-05-04T04:03:36.458Z,62.1
2018-05-04T04:04:35.246Z,62.5
2018-05-04T04:05:34.455Z,62.5
2018-05-04T04:06:33.664Z,63.3
2018-05-04T04:07:04.291Z,63.3
2018-05-04T04:07:34.808Z,62.5
2018-05-04T04:08:05.444Z,62.5
2018-05-04T04:10:30.710Z,61.9
2018-05-04T04:11:29.414Z,61.8
2018-05-04T04:12:28.748Z,61.4
2018-05-04T04:13:28.115Z,61.3
2018-05-04T04:14:27.045Z,61.9
2018-05-04T04:15:26.364Z,64.4
2018-05-04T04:16:25.691Z,62.5
2018-05-04T04:17:24.903Z,62.7
2018-05-04T04:18:23.823Z,61.7
2018-05-04T04:19:23.143Z,61
2018-05-04T04:20:22.140Z,62.1
2018-05-04T04:21:21.358Z,62.2
2018-05-04T04:22:20.626Z,61.8
2018-05-04T04:23:19.848Z,61.5
2018-05-04T04:24:19.061Z,62.9
2018-05-04T04:25:17.980Z,62.6
2018-05-04T04:26:17.414Z,62.4
2018-05-04T04:28:15.720Z,63.7
2018-05-04T04:29:14.528Z,62.4
2018-05-04T04:30:13.851Z,62.4
2018-05-04T04:31:13.168Z,61.4
2018-05-04T04:32:12.378Z,63.2
2018-05-04T04:33:11.803Z,63
2018-05-04T04:34:10.626Z,61.6
2018-05-04T04:35:09.726Z,61.7
2018-05-04T04:36:08.930Z,61.2
2018-05-04T04:36:39.162Z,61.2
2018-05-04T04:37:09.801Z,61.4
2018-05-04T04:37:40.433Z,61.4
2018-05-04T04:39:06.541Z,62.1
2018-05-04T04:41:04.744Z,62.4
2018-05-04T04:42:04.061Z,62.1
2018-05-04T04:43:03.174Z,60.6
2018-05-04T04:44:02.286Z,61.3
2018-05-04T04:45:01.682Z,61.9
2018-05-04T04:46:00.779Z,61.3
2018-05-04T04:46:59.994Z,61
2018-05-04T04:47:59.434Z,61.5
2018-05-04T04:48:30.070Z,61.5
2018-05-04T04:49:00.702Z,60.8
2018-05-04T04:49:57.526Z,60.8
2018-05-04T04:50:56.959Z,60.9
2018-05-04T04:51:55.888Z,60.7
2018-05-04T04:52:55.106Z,62.3
2018-05-04T04:53:54.545Z,60.7
2018-05-04T04:54:53.381Z,61
2018-05-04T04:55:52.808Z,62
2018-05-04T04:57:51.031Z,60.9
2018-05-04T04:58:50.353Z,61.6
2018-05-04T04:59:49.571Z,63.1
2018-05-04T05:00:48.676Z,60.5
2018-05-04T05:01:47.963Z,60.8
2018-05-04T05:02:46.594Z,61
2018-05-04T05:03:46.051Z,59.8
2018-05-04T05:04:45.364Z,61.1
2018-05-04T05:05:44.172Z,60.2
2018-05-04T05:06:43.381Z,61.2
2018-05-04T05:07:42.589Z,62.7
2018-05-04T05:08:41.901Z,60.5
2018-05-04T05:09:41.227Z,61.5
2018-05-04T05:10:40.332Z,61.2
2018-05-04T05:11:39.431Z,60.5
2018-05-04T05:12:38.528Z,60.8
2018-05-04T05:13:37.864Z,62.3
2018-05-04T05:14:36.956Z,61.4
2018-05-04T05:15:36.292Z,61.6
2018-05-04T05:16:35.505Z,62
2018-05-04T05:18:33.491Z,62.5
2018-05-04T05:19:33.201Z,62.6
2018-05-04T05:21:31.483Z,60.3
2018-05-04T05:22:30.305Z,60.9
2018-05-04T05:23:29.516Z,60.7
2018-05-04T05:24:29.017Z,61.8
2018-05-04T05:25:28.228Z,62.5
2018-05-04T05:26:26.933Z,63.3
2018-05-04T05:28:25.661Z,62.5
2018-05-04T05:29:24.641Z,61.4
2018-05-04T05:30:24.062Z,63.4
2018-05-04T05:31:23.180Z,64.3
2018-05-04T05:32:22.292Z,62.4
2018-05-04T05:32:52.534Z,62.4
2018-05-04T05:33:23.166Z,62.5
2018-05-04T05:34:20.627Z,63.9
2018-05-04T05:35:19.946Z,62.4
2018-05-04T05:36:18.863Z,63.5
2018-05-04T05:37:18.307Z,64.6
2018-05-04T05:38:17.620Z,62.1
2018-05-04T05:39:16.549Z,62.9
2018-05-04T05:40:15.863Z,62.8
2018-05-04T05:41:15.186Z,61.9
2018-05-04T05:42:14.001Z,65.1
2018-05-04T05:42:44.623Z,65.1
2018-05-04T05:44:12.627Z,64.6
2018-05-04T05:45:11.449Z,65.5
2018-05-04T05:46:10.657Z,62.6
2018-05-04T05:47:10.096Z,61.7
2018-05-04T05:48:09.415Z,61.5
2018-05-04T05:50:07.617Z,62.3
2018-05-04T05:51:06.826Z,62.8
2018-05-04T05:52:05.826Z,61.7
2018-05-04T05:53:05.173Z,62
2018-05-04T05:54:04.489Z,63.2
2018-05-04T05:55:03.810Z,64
2018-05-04T05:56:02.623Z,65.5
2018-05-04T05:57:02.110Z,64.9
2018-05-04T05:58:01.454Z,63.2
2018-05-04T05:59:00.039Z,62.4
2018-05-04T05:59:59.336Z,61.7
2018-05-04T06:00:58.554Z,63
2018-05-04T06:01:57.768Z,63
2018-05-04T06:02:57.097Z,61.1
2018-05-04T06:03:56.411Z,62.3
2018-05-04T06:04:55.724Z,63.7
2018-05-04T06:05:54.815Z,60.2
2018-05-04T06:06:54.031Z,60.4
2018-05-04T06:07:53.138Z,61.5
2018-05-04T06:08:52.364Z,61.9
2018-05-04T06:09:51.577Z,62.7
2018-05-04T06:10:50.500Z,59.5
2018-05-04T06:12:49.197Z,60.1
2018-05-04T06:13:47.899Z,61.9
2018-05-04T06:14:18.531Z,61.9
2018-05-04T06:15:46.540Z,61.7
2018-05-04T06:16:45.754Z,62.2
2018-05-04T06:17:44.853Z,63.4
2018-05-04T06:18:44.060Z,61.9
2018-05-04T06:19:43.169Z,60.5
2018-05-04T06:20:42.493Z,60.3
2018-05-04T06:21:41.700Z,62.2
2018-05-04T06:23:39.987Z,62.1
2018-05-04T06:24:39.310Z,63.1
2018-05-04T06:25:10.071Z,63.1
2018-05-04T06:26:37.651Z,64.1
2018-05-04T06:27:37.078Z,62
2018-05-04T06:28:36.288Z,62.4
2018-05-04T06:29:34.993Z,60.4
2018-05-04T06:30:34.696Z,62.4
2018-05-04T06:31:33.529Z,60.4
2018-05-04T06:32:32.855Z,62.4
2018-05-04T06:33:32.174Z,62.4
2018-05-04T06:34:31.166Z,61.3
2018-05-04T06:35:30.376Z,61.8
2018-05-04T06:36:29.473Z,62.6
2018-05-04T06:37:28.684Z,61.2
2018-05-04T06:38:27.897Z,61.6
2018-05-04T06:39:27.508Z,64
2018-05-04T06:40:26.326Z,59.8
2018-05-04T06:41:25.650Z,60.2
2018-05-04T06:42:24.857Z,58.9
2018-05-04T06:43:24.070Z,60.8
2018-05-04T06:44:23.489Z,61.3
2018-05-04T06:45:22.192Z,62.4
2018-05-04T06:46:21.908Z,60.3
2018-05-04T06:47:20.728Z,61.9
2018-05-04T06:48:20.042Z,64
2018-05-04T06:49:19.040Z,61.7
2018-05-04T06:50:18.470Z,61.6
2018-05-04T06:51:17.902Z,60.3
2018-05-04T06:52:16.839Z,62.1
2018-05-04T06:53:16.177Z,61.7
2018-05-04T06:54:15.080Z,61.3
2018-05-04T06:55:14.296Z,61.6
2018-05-04T06:56:13.523Z,61.2
2018-05-04T06:57:12.622Z,59.1
2018-05-04T06:58:12.223Z,59.8
2018-05-04T06:59:10.931Z,60.2
2018-05-04T07:00:10.535Z,60.8
2018-05-04T07:01:09.856Z,59.8
2018-05-04T07:02:08.564Z,60.8
2018-05-04T07:03:07.769Z,62
2018-05-04T07:04:06.990Z,62.3
2018-05-04T07:05:06.277Z,60.8
2018-05-04T07:06:05.492Z,60.9
2018-05-04T07:07:04.820Z,61.6
2018-05-04T07:08:04.028Z,62.1
2018-05-04T07:09:03.622Z,59.7
2018-05-04T07:10:02.286Z,59.9
2018-05-04T07:11:01.495Z,60.8
2018-05-04T07:12:00.723Z,60.5
2018-05-04T07:12:59.839Z,59.7
2018-05-04T07:13:59.268Z,59.8
2018-05-04T07:14:58.609Z,59
2018-05-04T07:15:57.416Z,59.7
2018-05-04T07:16:56.524Z,58.9
2018-05-04T07:17:55.949Z,60.2
2018-05-04T07:19:54.660Z,60.1
2018-05-04T07:20:53.476Z,59.4
2018-05-04T07:21:52.907Z,60
2018-05-04T07:22:52.220Z,60
2018-05-04T07:23:51.425Z,58
2018-05-04T07:24:50.632Z,60.2
2018-05-04T07:25:49.554Z,59.7
2018-05-04T07:26:48.870Z,59.5
2018-05-04T07:27:47.965Z,58.4
2018-05-04T07:28:47.432Z,56.3
2018-05-04T07:29:46.414Z,56.2
2018-05-04T07:30:45.723Z,56.9
2018-05-04T07:31:44.640Z,57.3
2018-05-04T07:32:43.957Z,55.9
2018-05-04T07:33:43.284Z,54.3
2018-05-04T07:34:42.497Z,54.1
2018-05-04T07:35:41.859Z,54.5
2018-05-04T07:36:40.785Z,52.2
2018-05-04T07:37:39.990Z,53.1
2018-05-04T07:38:39.299Z,54.2
2018-05-04T07:39:38.508Z,53.5
2018-05-04T07:40:37.839Z,52.4
2018-05-04T07:41:36.771Z,52.7
2018-05-04T07:42:35.775Z,53.8
2018-05-04T07:43:35.487Z,52.6
2018-05-04T07:44:34.581Z,53.5
2018-05-04T07:46:32.569Z,54.3
2018-05-04T07:47:31.882Z,53
2018-05-04T07:48:31.308Z,53.8
2018-05-04T07:49:30.515Z,54
2018-05-04T07:50:29.725Z,52.6
2018-05-04T07:53:27.322Z,53
2018-05-04T07:54:26.640Z,53
2018-05-04T07:55:25.947Z,54.7
2018-05-04T07:57:24.041Z,57.2
2018-05-04T07:59:22.634Z,52.6
2018-05-04T08:01:20.843Z,51.5
2018-05-04T08:02:20.065Z,51.7
2018-05-04T08:04:18.768Z,53.5
2018-05-04T08:05:17.587Z,51
2018-05-04T08:05:48.006Z,51
2018-05-04T08:08:15.681Z,48.8
2018-05-04T08:09:14.892Z,49.1
2018-05-04T08:10:13.712Z,51.3
2018-05-04T08:11:12.927Z,48.2
2018-05-04T08:12:12.134Z,47.8
2018-05-04T08:13:11.450Z,49.3
2018-05-04T08:14:10.564Z,48.4
2018-05-04T08:15:10.023Z,49.7
2018-05-04T08:16:09.128Z,49
2018-05-04T08:18:07.438Z,48.5
2018-05-04T08:19:06.647Z,48.1
2018-05-04T08:20:06.106Z,47.8
2018-05-04T08:21:05.254Z,46.3
2018-05-04T08:22:04.467Z,48.3
2018-05-04T08:23:03.558Z,47.5
2018-05-04T08:25:02.044Z,45.8
2018-05-04T08:26:01.154Z,46.5
2018-05-04T08:27:00.370Z,48
2018-05-04T08:27:59.575Z,48.6
2018-05-04T08:28:58.792Z,48.1
2018-05-04T08:29:58.214Z,46.4
2018-05-04T08:30:57.527Z,46.6
2018-05-04T08:31:56.454Z,47.9
2018-05-04T08:33:55.161Z,47.9
2018-05-04T08:34:54.472Z,48.4
2018-05-04T08:35:53.790Z,48.1
2018-05-04T08:36:53.000Z,50.3
2018-05-04T08:37:51.921Z,50.3
2018-05-04T08:38:51.347Z,47.5
2018-05-04T08:39:50.656Z,46.6
2018-05-04T08:40:50.059Z,45.7
2018-05-04T08:41:48.722Z,47.6
2018-05-04T08:42:48.106Z,45.9
2018-05-04T08:43:47.312Z,46
2018-05-04T08:44:46.631Z,49.7
2018-05-04T08:46:45.342Z,47.6
2018-05-04T08:47:44.392Z,48.4
2018-05-04T08:48:43.318Z,46.2
2018-05-04T08:49:42.643Z,47.7
2018-05-04T08:50:41.916Z,47.5
2018-05-04T08:51:41.337Z,48.3
2018-05-04T08:53:39.929Z,48.1
2018-05-04T08:54:39.030Z,51.8
2018-05-04T08:55:37.947Z,46.8
2018-05-04T08:56:37.162Z,48.3
2018-05-04T08:57:36.513Z,49.3
2018-05-04T08:58:36.056Z,51.1
2018-05-04T08:59:34.896Z,47.9
2018-05-04T09:00:34.099Z,49.5
2018-05-04T09:02:32.811Z,49.4
2018-05-04T09:03:32.032Z,49.3
2018-05-04T09:05:30.765Z,49.2
2018-05-04T09:06:29.792Z,49.7
2018-05-04T09:07:28.899Z,49.9
2018-05-04T09:08:28.332Z,51
2018-05-04T09:09:27.543Z,49.5
2018-05-04T09:11:25.852Z,49.7
2018-05-04T09:13:24.554Z,46.2
2018-05-04T09:14:23.484Z,45.4
2018-05-04T09:15:22.909Z,45.6
2018-05-04T09:16:22.124Z,46
2018-05-04T09:17:21.334Z,46.5
2018-05-04T09:18:20.831Z,44.6
2018-05-04T09:19:20.060Z,46.1
2018-05-04T09:20:18.995Z,46.7
2018-05-04T09:21:18.314Z,49.1
2018-05-04T09:22:17.430Z,45.9
2018-05-04T09:24:16.123Z,43.6
2018-05-04T09:25:15.604Z,43.1
2018-05-04T09:26:14.755Z,45
2018-05-04T09:27:14.175Z,45.4
2018-05-04T09:28:13.479Z,43.9
2018-05-04T09:29:12.489Z,45.2
2018-05-04T09:30:11.851Z,45.6
2018-05-04T09:31:11.167Z,48.3
2018-05-04T09:32:10.384Z,49.9
2018-05-04T09:33:09.306Z,46.4
2018-05-04T09:34:08.746Z,45.4
2018-05-04T09:36:07.514Z,43.3
2018-05-04T09:37:06.337Z,45.5
2018-05-04T09:38:05.726Z,42.1
2018-05-04T09:39:05.046Z,42.1
2018-05-04T09:41:03.525Z,42.5
2018-05-04T09:41:34.170Z,42.5
2018-05-04T09:43:02.083Z,46.8
2018-05-04T09:43:32.354Z,46.8
2018-05-04T09:45:00.463Z,45.7
2018-05-04T09:45:59.780Z,43.9
2018-05-04T09:46:59.092Z,45.2
2018-05-04T09:47:58.422Z,42
2018-05-04T09:48:57.605Z,42.2
2018-05-04T09:49:56.708Z,44.5
2018-05-04T09:50:56.208Z,46.3
2018-05-04T09:51:55.524Z,44.6
2018-05-04T09:52:54.745Z,44.6
2018-05-04T09:53:54.061Z,42.2
2018-05-04T09:54:53.270Z,43.4
2018-05-04T09:55:52.727Z,45.6
2018-05-04T09:56:52.076Z,44.4
2018-05-04T09:58:50.287Z,45.3
2018-05-04T09:59:49.999Z,45.7
2018-05-04T10:00:48.830Z,48.9
2018-05-04T10:01:48.545Z,47
2018-05-04T10:02:47.256Z,45.1
2018-05-04T10:03:46.965Z,42.9
2018-05-04T10:06:44.665Z,47.8
2018-05-04T10:07:43.887Z,47.7
2018-05-04T10:08:43.206Z,49.7
2018-05-04T10:09:42.308Z,47.2
2018-05-04T10:10:41.797Z,44.8
2018-05-04T10:11:40.906Z,45.8
2018-05-04T10:12:40.223Z,43.9
2018-05-04T10:13:39.536Z,47.6
2018-05-04T10:14:38.748Z,47.6
2018-05-04T10:16:37.639Z,45.1
2018-05-04T10:17:36.742Z,49.5
2018-05-04T10:18:35.942Z,44.1
2018-05-04T10:19:35.260Z,45.6
2018-05-04T10:20:34.468Z,48.3
2018-05-04T10:21:33.779Z,47.6
2018-05-04T10:22:33.099Z,48.2
2018-05-04T10:23:32.324Z,45
2018-05-04T10:24:02.559Z,45
2018-05-04T10:24:32.801Z,50.4
2018-05-04T10:25:03.041Z,50.4
2018-05-04T10:25:33.455Z,45.3
2018-05-04T10:26:03.975Z,45.3
2018-05-04T10:27:29.761Z,46.6
2018-05-04T10:29:28.360Z,43.6
2018-05-04T10:30:27.680Z,45.7
2018-05-04T10:31:27.177Z,43.1
2018-05-04T10:33:25.507Z,43.6
2018-05-04T10:34:24.604Z,45.8
2018-05-04T10:34:54.918Z,45.8
2018-05-04T10:35:25.570Z,43.3
2018-05-04T10:35:55.890Z,43.3
2018-05-04T10:37:22.771Z,46.6
2018-05-04T10:38:21.947Z,46.2
2018-05-04T10:39:21.517Z,49.7
2018-05-04T10:40:20.332Z,45.4
2018-05-04T10:41:19.994Z,46.9
2018-05-04T10:42:19.222Z,47.9
2018-05-04T10:43:18.324Z,47.4
2018-05-04T10:44:17.538Z,48.7
2018-05-04T10:45:16.849Z,43.9
2018-05-04T10:47:15.518Z,46.1
2018-05-04T10:48:14.729Z,42.9
2018-05-04T10:49:13.939Z,42.6
2018-05-04T10:50:13.647Z,43.3
2018-05-04T10:51:12.860Z,43.8
2018-05-04T10:52:12.064Z,45.9
2018-05-04T10:53:11.412Z,43.5
2018-05-04T10:54:10.724Z,44.9
2018-05-04T10:55:10.148Z,44.2
2018-05-04T10:56:09.435Z,46.8
2018-05-04T10:58:08.038Z,44
2018-05-04T10:59:07.433Z,47.6
2018-05-04T11:00:06.743Z,42
2018-05-04T11:01:05.951Z,44.8
2018-05-04T11:03:04.548Z,39.6
2018-05-04T11:04:03.759Z,40.9
2018-05-04T11:07:01.559Z,40.4
2018-05-04T11:08:01.161Z,39.9
2018-05-04T11:09:00.365Z,39.8
2018-05-04T11:09:59.973Z,43.4
2018-05-04T11:10:59.075Z,48.5
2018-05-04T11:11:58.183Z,39
2018-05-04T11:12:57.718Z,40.9
2018-05-04T11:14:56.531Z,41
2018-05-04T11:15:55.743Z,47.2
2018-05-04T11:16:54.951Z,49.3
2018-05-04T11:17:54.375Z,47.8
2018-05-04T11:18:53.587Z,43.5
2018-05-04T11:19:52.900Z,45.1
2018-05-04T11:20:52.322Z,46.1
2018-05-04T11:21:51.532Z,50.1
2018-05-04T11:22:22.168Z,50.1
2018-05-04T11:22:52.793Z,48.9
2018-05-04T11:23:49.995Z,46.2
2018-05-04T11:24:49.221Z,45.3
2018-05-04T11:25:48.427Z,50.6
2018-05-04T11:26:48.134Z,47.7
2018-05-04T11:27:47.567Z,47.6
2018-05-04T11:28:46.488Z,49
2018-05-04T11:29:46.212Z,43.8
2018-05-04T11:30:45.137Z,43.9
2018-05-04T11:31:44.849Z,45
2018-05-04T11:32:15.372Z,45
2018-05-04T11:32:45.619Z,42.6
2018-05-04T11:33:16.139Z,42.6
2018-05-04T11:34:42.548Z,41.2
2018-05-04T11:35:41.968Z,43.3
2018-05-04T11:37:40.677Z,41.1
2018-05-04T11:38:39.985Z,41
2018-05-04T11:39:39.190Z,40.6
2018-05-04T11:40:38.289Z,38.9
2018-05-04T11:41:37.603Z,42.1
2018-05-04T11:42:36.916Z,44
2018-05-04T11:44:35.623Z,46
2018-05-04T11:45:34.950Z,45.8
2018-05-04T11:46:34.556Z,50.4
2018-05-04T11:47:33.994Z,47.3
2018-05-04T11:48:33.321Z,43
2018-05-04T11:49:32.542Z,50.1
2018-05-04T11:51:31.299Z,45
2018-05-04T11:52:30.215Z,41.8
2018-05-04T11:53:29.822Z,46.7
2018-05-04T11:54:29.033Z,40.6
2018-05-04T11:56:27.736Z,40.7
2018-05-04T11:57:26.938Z,41.8
2018-05-04T11:58:26.256Z,43.7
2018-05-04T12:00:24.854Z,44.7
2018-05-04T12:01:24.171Z,46.4
2018-05-04T12:02:23.651Z,45.3
2018-05-04T12:04:22.288Z,43.5
2018-05-04T12:04:52.911Z,43.5
2018-05-04T12:05:23.121Z,40.1
2018-05-04T12:07:20.270Z,42.3
2018-05-04T12:08:19.587Z,42.7
2018-05-04T12:09:18.954Z,48.5
2018-05-04T12:10:18.057Z,45.7
2018-05-04T12:13:15.942Z,38.8
2018-05-04T12:14:15.767Z,41
2018-05-04T12:14:46.331Z,41
2018-05-04T12:16:14.129Z,44.9
2018-05-04T12:17:13.637Z,41.2
2018-05-04T12:18:12.949Z,41.6
2018-05-04T12:19:12.154Z,42.2
2018-05-04T12:20:11.361Z,43.8
2018-05-04T12:21:10.570Z,43.8
2018-05-04T12:23:09.281Z,47.2
2018-05-04T12:25:07.839Z,43.6
2018-05-04T12:26:07.262Z,43.6
2018-05-04T12:27:06.590Z,41.7
2018-05-04T12:28:05.797Z,44.1
2018-05-04T12:29:05.625Z,41.6
2018-05-04T12:31:04.114Z,39.3
2018-05-04T12:32:03.332Z,39.9
2018-05-04T12:34:02.043Z,46.7
2018-05-04T12:35:01.364Z,44.1
2018-05-04T12:36:00.680Z,44.3
2018-05-04T12:36:59.945Z,48.2
2018-05-04T12:37:59.345Z,40.5
2018-05-04T12:38:58.764Z,40.1
2018-05-04T12:39:57.868Z,43.3
2018-05-04T12:40:57.183Z,45.2
2018-05-04T12:41:56.497Z,42.9
2018-05-04T12:42:55.814Z,44.4
2018-05-04T12:43:55.242Z,43.9
2018-05-04T12:44:54.467Z,44.4
2018-05-04T12:47:52.665Z,43.1
2018-05-04T12:48:51.992Z,43.6
2018-05-04T12:49:51.411Z,42.8
2018-05-04T12:50:50.671Z,38.3
2018-05-04T12:51:50.092Z,41
2018-05-04T12:53:48.845Z,43
2018-05-04T12:54:48.100Z,46.6
2018-05-04T12:55:47.525Z,39.7
2018-05-04T12:56:46.743Z,39.6
2018-05-04T12:57:46.067Z,39.4
2018-05-04T12:58:45.271Z,40.7
2018-05-04T12:59:44.775Z,37.4
2018-05-04T13:00:43.991Z,38
2018-05-04T13:01:43.203Z,41.8
2018-05-04T13:02:42.914Z,40.5
2018-05-04T13:04:41.214Z,42.1
2018-05-04T13:05:40.936Z,44.2
2018-05-04T13:06:40.249Z,38.6
2018-05-04T13:08:38.850Z,42.3
2018-05-04T13:09:38.162Z,40.9
2018-05-04T13:10:37.477Z,42
2018-05-04T13:11:36.595Z,41.8
2018-05-04T13:12:36.195Z,39.8
2018-05-04T13:13:35.299Z,40
2018-05-04T13:14:34.626Z,39.9
2018-05-04T13:16:33.220Z,38.5
2018-05-04T13:17:33.113Z,39.5
2018-05-04T13:19:31.717Z,38
2018-05-04T13:21:30.400Z,42.2
2018-05-04T13:22:29.389Z,39.5
2018-05-04T13:23:28.707Z,40.2
2018-05-04T13:24:28.035Z,37.6
2018-05-04T13:26:26.855Z,39.3
2018-05-04T13:27:26.066Z,41.2
2018-05-04T13:28:25.783Z,42.6
2018-05-04T13:30:24.377Z,42.5
2018-05-04T13:31:23.816Z,41.7
2018-05-04T13:33:22.384Z,36.4
2018-05-04T13:34:21.588Z,36.1
2018-05-04T13:35:20.905Z,36.8
2018-05-04T13:36:20.124Z,36
2018-05-04T13:38:18.934Z,38.1
2018-05-04T13:39:18.052Z,42.1
2018-05-04T13:40:17.477Z,40.1
2018-05-04T13:41:16.818Z,40
2018-05-04T13:42:16.535Z,39.4
2018-05-04T13:43:15.861Z,41.8
2018-05-04T13:44:14.966Z,37.3
2018-05-04T13:45:14.407Z,36.6
2018-05-04T13:48:12.497Z,39.3
2018-05-04T13:49:11.712Z,39.7
2018-05-04T13:50:11.134Z,40
2018-05-04T13:51:10.270Z,38.8
2018-05-04T13:52:09.767Z,38.7
2018-05-04T13:53:09.090Z,42
2018-05-04T13:54:08.300Z,42.9
2018-05-04T13:55:07.724Z,39
2018-05-04T13:56:07.156Z,41.6
2018-05-04T13:57:06.471Z,43.5
2018-05-04T13:58:05.681Z,42.9
2018-05-04T13:58:36.319Z,42.9
2018-05-04T14:00:04.328Z,39.1
2018-05-04T14:01:04.184Z,38.4
2018-05-04T14:02:03.267Z,36.9
2018-05-04T14:03:02.593Z,38
2018-05-04T14:06:00.581Z,38.7
2018-05-04T14:06:59.688Z,39.5
2018-05-04T14:07:59.120Z,41.3
2018-05-04T14:08:58.334Z,40.1
2018-05-04T14:09:29.072Z,40.1
2018-05-04T14:09:59.602Z,41.2
2018-05-04T14:10:57.295Z,39.2
2018-05-04T14:11:56.604Z,38.1
2018-05-04T14:12:55.948Z,38.2